sensor_id;sensor_type;location;lat;lon;timestamp;temperature;humidity
57576;DHT22;43412;-33.800;150.804;2023-06-22T00:01:22;11.40;99.90
57576;DHT22;43412;-33.800;150.804;2023-06-22T00:03:49;11.60;99.90
57576;DHT22;43412;-33.800;150.804;2023-06-22T00:06:17;11.80;99.90
57576;DHT22;43412;-33.800;150.804;2023-06-22T00:08:44;12.00;99.90
57576;DHT22;43412;-33.800;150.804;2023-06-22T00:11:11;12.00;99.90
57576;DHT22;43412;-33.800;150.804;2023-06-22T00:13:39;12.00;99.90
57576;DHT22;43412;-33.800;150.804;2023-06-22T00:16:06;12.10;99.90
57576;DHT22;43412;-33.800;150.804;2023-06-22T00:18:34;12.20;99.90
57576;DHT22;43412;-33.800;150.804;2023-06-22T00:21:01;12.30;99.90
57576;DHT22;43412;-33.800;150.804;2023-06-22T00:23:28;12.40;99.90
57576;DHT22;43412;-33.800;150.804;2023-06-22T00:26:00;12.50;99.90
57576;DHT22;43412;-33.800;150.804;2023-06-22T00:28:28;12.60;99.90
57576;DHT22;43412;-33.800;150.804;2023-06-22T00:30:55;12.80;99.90
57576;DHT22;43412;-33.800;150.804;2023-06-22T00:33:23;13.00;99.90
57576;DHT22;43412;-33.800;150.804;2023-06-22T00:35:50;13.20;99.90
57576;DHT22;43412;-33.800;150.804;2023-06-22T00:38:19;13.50;99.90
57576;DHT22;43412;-33.800;150.804;2023-06-22T00:40:47;13.90;99.90
57576;DHT22;43412;-33.800;150.804;2023-06-22T00:43:14;14.70;99.90
57576;DHT22;43412;-33.800;150.804;2023-06-22T00:45:42;15.90;99.90
57576;DHT22;43412;-33.800;150.804;2023-06-22T00:48:09;16.80;99.70
57576;DHT22;43412;-33.800;150.804;2023-06-22T00:50:37;17.40;97.30
57576;DHT22;43412;-33.800;150.804;2023-06-22T00:53:07;17.40;96.10
57576;DHT22;43412;-33.800;150.804;2023-06-22T00:55:40;17.10;95.70
57576;DHT22;43412;-33.800;150.804;2023-06-22T00:58:10;16.70;95.80
57576;DHT22;43412;-33.800;150.804;2023-06-22T01:00:39;16.20;96.20
57576;DHT22;43412;-33.800;150.804;2023-06-22T01:03:06;16.00;96.50
57576;DHT22;43412;-33.800;150.804;2023-06-22T01:05:37;15.80;96.80
57576;DHT22;43412;-33.800;150.804;2023-06-22T01:08:26;15.60;97.20
57576;DHT22;43412;-33.800;150.804;2023-06-22T01:11:10;15.40;97.00
57576;DHT22;43412;-33.800;150.804;2023-06-22T01:14:10;15.30;97.40
57576;DHT22;43412;-33.800;150.804;2023-06-22T01:16:41;15.40;97.30
57576;DHT22;43412;-33.800;150.804;2023-06-22T01:22:15;15.50;97.00
57576;DHT22;43412;-33.800;150.804;2023-06-22T01:24:55;15.30;96.70
57576;DHT22;43412;-33.800;150.804;2023-06-22T01:30:08;14.90;97.20
57576;DHT22;43412;-33.800;150.804;2023-06-22T01:32:38;14.80;97.10
57576;DHT22;43412;-33.800;150.804;2023-06-22T01:35:07;14.80;97.50
57576;DHT22;43412;-33.800;150.804;2023-06-22T01:37:37;14.80;97.90
57576;DHT22;43412;-33.800;150.804;2023-06-22T01:40:06;15.00;97.70
57576;DHT22;43412;-33.800;150.804;2023-06-22T01:42:36;15.10;97.60
57576;DHT22;43412;-33.800;150.804;2023-06-22T01:45:04;15.30;97.50
57576;DHT22;43412;-33.800;150.804;2023-06-22T01:47:32;15.50;96.90
57576;DHT22;43412;-33.800;150.804;2023-06-22T01:50:01;15.60;97.10
57576;DHT22;43412;-33.800;150.804;2023-06-22T01:52:28;15.50;96.50
57576;DHT22;43412;-33.800;150.804;2023-06-22T01:54:56;15.50;96.60
57576;DHT22;43412;-33.800;150.804;2023-06-22T01:57:24;15.40;96.80
57576;DHT22;43412;-33.800;150.804;2023-06-22T02:00:04;15.30;96.90
57576;DHT22;43412;-33.800;150.804;2023-06-22T02:02:49;15.20;97.30
57576;DHT22;43412;-33.800;150.804;2023-06-22T02:05:20;15.20;97.20
57576;DHT22;43412;-33.800;150.804;2023-06-22T02:08:41;15.60;96.50
57576;DHT22;43412;-33.800;150.804;2023-06-22T02:11:01;15.90;96.20
57576;DHT22;43412;-33.800;150.804;2023-06-22T02:13:30;16.10;95.80
57576;DHT22;43412;-33.800;150.804;2023-06-22T02:15:58;16.00;95.80
57576;DHT22;43412;-33.800;150.804;2023-06-22T02:18:25;15.90;95.80
57576;DHT22;43412;-33.800;150.804;2023-06-22T02:20:53;15.80;96.10
57576;DHT22;43412;-33.800;150.804;2023-06-22T02:23:20;15.60;96.40
57576;DHT22;43412;-33.800;150.804;2023-06-22T02:25:47;15.50;96.80
57576;DHT22;43412;-33.800;150.804;2023-06-22T02:28:15;15.50;97.10
57576;DHT22;43412;-33.800;150.804;2023-06-22T02:30:42;15.50;97.00
57576;DHT22;43412;-33.800;150.804;2023-06-22T02:33:09;15.60;96.80
57576;DHT22;43412;-33.800;150.804;2023-06-22T02:35:37;16.00;96.70
57576;DHT22;43412;-33.800;150.804;2023-06-22T02:38:04;16.40;96.20
57576;DHT22;43412;-33.800;150.804;2023-06-22T02:40:32;16.90;96.10
57576;DHT22;43412;-33.800;150.804;2023-06-22T02:42:59;17.40;95.30
57576;DHT22;43412;-33.800;150.804;2023-06-22T02:45:29;17.40;94.80
57576;DHT22;43412;-33.800;150.804;2023-06-22T02:47:57;17.20;94.90
57576;DHT22;43412;-33.800;150.804;2023-06-22T02:50:24;17.00;95.30
57576;DHT22;43412;-33.800;150.804;2023-06-22T02:52:52;16.80;95.60
57576;DHT22;43412;-33.800;150.804;2023-06-22T02:55:19;16.60;95.80
57576;DHT22;43412;-33.800;150.804;2023-06-22T02:57:47;16.30;96.10
57576;DHT22;43412;-33.800;150.804;2023-06-22T03:00:15;16.00;96.60
57576;DHT22;43412;-33.800;150.804;2023-06-22T03:02:47;15.90;97.10
57576;DHT22;43412;-33.800;150.804;2023-06-22T03:05:15;15.90;97.00
57576;DHT22;43412;-33.800;150.804;2023-06-22T03:07:45;15.80;97.40
57576;DHT22;43412;-33.800;150.804;2023-06-22T03:10:13;15.70;97.70
57576;DHT22;43412;-33.800;150.804;2023-06-22T03:12:41;15.70;98.10
57576;DHT22;43412;-33.800;150.804;2023-06-22T03:15:11;15.70;97.60
57576;DHT22;43412;-33.800;150.804;2023-06-22T03:17:39;15.60;97.80
57576;DHT22;43412;-33.800;150.804;2023-06-22T03:20:08;15.40;97.80
57576;DHT22;43412;-33.800;150.804;2023-06-22T03:22:40;15.30;98.30
57576;DHT22;43412;-33.800;150.804;2023-06-22T03:25:09;15.20;98.50
57576;DHT22;43412;-33.800;150.804;2023-06-22T03:27:43;15.00;98.90
57576;DHT22;43412;-33.800;150.804;2023-06-22T03:30:12;14.90;98.80
57576;DHT22;43412;-33.800;150.804;2023-06-22T03:32:39;14.90;99.10
57576;DHT22;43412;-33.800;150.804;2023-06-22T03:35:07;14.90;99.40
57576;DHT22;43412;-33.800;150.804;2023-06-22T03:37:34;14.90;99.40
57576;DHT22;43412;-33.800;150.804;2023-06-22T03:40:02;14.80;99.30
57576;DHT22;43412;-33.800;150.804;2023-06-22T03:42:34;14.80;99.60
57576;DHT22;43412;-33.800;150.804;2023-06-22T03:45:06;14.70;99.50
57576;DHT22;43412;-33.800;150.804;2023-06-22T03:47:33;14.70;99.60
57576;DHT22;43412;-33.800;150.804;2023-06-22T03:50:01;14.70;99.70
57576;DHT22;43412;-33.800;150.804;2023-06-22T03:52:30;14.60;99.90
57576;DHT22;43412;-33.800;150.804;2023-06-22T03:54:57;14.60;99.80
57576;DHT22;43412;-33.800;150.804;2023-06-22T03:57:25;14.60;99.90
57576;DHT22;43412;-33.800;150.804;2023-06-22T03:59:53;14.60;99.90
57576;DHT22;43412;-33.800;150.804;2023-06-22T04:02:21;14.60;99.90
57576;DHT22;43412;-33.800;150.804;2023-06-22T04:04:48;14.50;99.90
57576;DHT22;43412;-33.800;150.804;2023-06-22T04:07:15;14.50;99.90
57576;DHT22;43412;-33.800;150.804;2023-06-22T04:09:44;14.50;99.90
57576;DHT22;43412;-33.800;150.804;2023-06-22T04:12:11;14.40;99.90
57576;DHT22;43412;-33.800;150.804;2023-06-22T04:14:39;14.50;99.90
57576;DHT22;43412;-33.800;150.804;2023-06-22T04:17:06;14.50;99.90
57576;DHT22;43412;-33.800;150.804;2023-06-22T04:19:33;14.40;99.90
57576;DHT22;43412;-33.800;150.804;2023-06-22T04:22:01;14.50;99.90
57576;DHT22;43412;-33.800;150.804;2023-06-22T04:24:28;14.50;99.90
57576;DHT22;43412;-33.800;150.804;2023-06-22T04:26:55;14.50;99.90
57576;DHT22;43412;-33.800;150.804;2023-06-22T04:29:23;14.40;99.90
57576;DHT22;43412;-33.800;150.804;2023-06-22T04:31:58;14.30;99.90
57576;DHT22;43412;-33.800;150.804;2023-06-22T04:34:29;14.20;99.90
57576;DHT22;43412;-33.800;150.804;2023-06-22T04:36:57;14.20;99.90
57576;DHT22;43412;-33.800;150.804;2023-06-22T04:39:24;14.20;99.90
57576;DHT22;43412;-33.800;150.804;2023-06-22T04:41:53;14.10;99.90
57576;DHT22;43412;-33.800;150.804;2023-06-22T04:44:27;14.10;99.90
57576;DHT22;43412;-33.800;150.804;2023-06-22T04:46:57;14.10;99.90
57576;DHT22;43412;-33.800;150.804;2023-06-22T04:49:29;14.10;99.90
57576;DHT22;43412;-33.800;150.804;2023-06-22T04:52:00;14.10;99.90
57576;DHT22;43412;-33.800;150.804;2023-06-22T04:54:28;14.00;99.90
57576;DHT22;43412;-33.800;150.804;2023-06-22T04:56:55;14.00;99.90
57576;DHT22;43412;-33.800;150.804;2023-06-22T04:59:28;13.90;99.90
57576;DHT22;43412;-33.800;150.804;2023-06-22T05:01:57;13.90;99.90
57576;DHT22;43412;-33.800;150.804;2023-06-22T05:04:26;13.80;99.90
57576;DHT22;43412;-33.800;150.804;2023-06-22T05:06:55;13.80;99.90
57576;DHT22;43412;-33.800;150.804;2023-06-22T05:09:22;13.80;99.90
57576;DHT22;43412;-33.800;150.804;2023-06-22T05:11:51;13.80;99.90
57576;DHT22;43412;-33.800;150.804;2023-06-22T05:14:19;13.70;99.90
57576;DHT22;43412;-33.800;150.804;2023-06-22T05:16:46;13.80;99.90
57576;DHT22;43412;-33.800;150.804;2023-06-22T05:19:14;13.80;99.90
57576;DHT22;43412;-33.800;150.804;2023-06-22T05:21:42;13.80;99.90
57576;DHT22;43412;-33.800;150.804;2023-06-22T05:24:10;13.70;99.90
57576;DHT22;43412;-33.800;150.804;2023-06-22T05:26:37;13.60;99.90
57576;DHT22;43412;-33.800;150.804;2023-06-22T05:29:05;13.50;99.90
57576;DHT22;43412;-33.800;150.804;2023-06-22T05:31:33;13.40;99.90
57576;DHT22;43412;-33.800;150.804;2023-06-22T05:34:00;13.30;99.90
57576;DHT22;43412;-33.800;150.804;2023-06-22T05:36:28;13.20;99.90
57576;DHT22;43412;-33.800;150.804;2023-06-22T05:38:57;13.00;99.90
57576;DHT22;43412;-33.800;150.804;2023-06-22T05:41:25;12.90;99.90
57576;DHT22;43412;-33.800;150.804;2023-06-22T05:43:52;12.90;99.90
57576;DHT22;43412;-33.800;150.804;2023-06-22T05:46:20;12.80;99.90
57576;DHT22;43412;-33.800;150.804;2023-06-22T05:48:47;12.60;99.90
57576;DHT22;43412;-33.800;150.804;2023-06-22T05:51:15;12.60;99.90
57576;DHT22;43412;-33.800;150.804;2023-06-22T05:53:42;12.50;99.90
57576;DHT22;43412;-33.800;150.804;2023-06-22T05:56:10;12.50;99.90
57576;DHT22;43412;-33.800;150.804;2023-06-22T05:58:38;12.40;99.90
57576;DHT22;43412;-33.800;150.804;2023-06-22T06:01:05;12.40;99.90
57576;DHT22;43412;-33.800;150.804;2023-06-22T06:03:33;12.30;99.90
57576;DHT22;43412;-33.800;150.804;2023-06-22T06:06:00;12.30;99.90
57576;DHT22;43412;-33.800;150.804;2023-06-22T06:08:29;12.20;99.90
57576;DHT22;43412;-33.800;150.804;2023-06-22T06:10:56;12.10;99.90
57576;DHT22;43412;-33.800;150.804;2023-06-22T06:13:24;12.10;99.90
57576;DHT22;43412;-33.800;150.804;2023-06-22T06:15:51;12.00;99.90
57576;DHT22;43412;-33.800;150.804;2023-06-22T06:18:21;12.00;99.90
57576;DHT22;43412;-33.800;150.804;2023-06-22T06:20:48;12.00;99.90
57576;DHT22;43412;-33.800;150.804;2023-06-22T06:23:16;12.00;99.90
57576;DHT22;43412;-33.800;150.804;2023-06-22T06:25:43;12.00;99.90
57576;DHT22;43412;-33.800;150.804;2023-06-22T06:28:10;11.90;99.90
57576;DHT22;43412;-33.800;150.804;2023-06-22T06:30:38;11.90;99.90
57576;DHT22;43412;-33.800;150.804;2023-06-22T06:33:05;11.80;99.90
57576;DHT22;43412;-33.800;150.804;2023-06-22T06:35:35;11.80;99.90
57576;DHT22;43412;-33.800;150.804;2023-06-22T06:38:04;11.70;99.90
57576;DHT22;43412;-33.800;150.804;2023-06-22T06:40:31;11.70;99.90
57576;DHT22;43412;-33.800;150.804;2023-06-22T06:42:58;11.70;99.90
57576;DHT22;43412;-33.800;150.804;2023-06-22T06:45:26;11.60;99.90
57576;DHT22;43412;-33.800;150.804;2023-06-22T06:47:55;11.70;99.90
57576;DHT22;43412;-33.800;150.804;2023-06-22T06:50:22;11.60;99.90
57576;DHT22;43412;-33.800;150.804;2023-06-22T06:52:49;11.70;99.90
57576;DHT22;43412;-33.800;150.804;2023-06-22T06:55:17;11.70;99.90
57576;DHT22;43412;-33.800;150.804;2023-06-22T06:57:45;11.70;99.90
57576;DHT22;43412;-33.800;150.804;2023-06-22T07:00:16;11.70;99.90
57576;DHT22;43412;-33.800;150.804;2023-06-22T07:02:45;11.60;99.90
57576;DHT22;43412;-33.800;150.804;2023-06-22T07:05:15;11.60;99.90
57576;DHT22;43412;-33.800;150.804;2023-06-22T07:07:42;11.60;99.90
57576;DHT22;43412;-33.800;150.804;2023-06-22T07:10:09;11.60;99.90
57576;DHT22;43412;-33.800;150.804;2023-06-22T07:12:37;11.60;99.90
57576;DHT22;43412;-33.800;150.804;2023-06-22T07:15:06;11.60;99.90
57576;DHT22;43412;-33.800;150.804;2023-06-22T07:17:38;11.50;99.90
57576;DHT22;43412;-33.800;150.804;2023-06-22T07:20:07;11.50;99.90
57576;DHT22;43412;-33.800;150.804;2023-06-22T07:22:44;11.50;99.90
57576;DHT22;43412;-33.800;150.804;2023-06-22T07:25:12;11.40;99.90
57576;DHT22;43412;-33.800;150.804;2023-06-22T07:28:00;11.40;99.90
57576;DHT22;43412;-33.800;150.804;2023-06-22T07:30:29;11.30;99.90
57576;DHT22;43412;-33.800;150.804;2023-06-22T07:32:57;11.30;99.90
57576;DHT22;43412;-33.800;150.804;2023-06-22T07:35:25;11.30;99.90
57576;DHT22;43412;-33.800;150.804;2023-06-22T07:37:52;11.30;99.90
57576;DHT22;43412;-33.800;150.804;2023-06-22T07:40:20;11.30;99.90
57576;DHT22;43412;-33.800;150.804;2023-06-22T07:42:47;11.30;99.90
57576;DHT22;43412;-33.800;150.804;2023-06-22T07:45:19;11.30;99.90
57576;DHT22;43412;-33.800;150.804;2023-06-22T07:47:46;11.30;99.90
57576;DHT22;43412;-33.800;150.804;2023-06-22T07:50:13;11.20;99.90
57576;DHT22;43412;-33.800;150.804;2023-06-22T07:52:41;11.20;99.90
57576;DHT22;43412;-33.800;150.804;2023-06-22T07:55:08;11.20;99.90
57576;DHT22;43412;-33.800;150.804;2023-06-22T07:57:36;11.30;99.90
57576;DHT22;43412;-33.800;150.804;2023-06-22T08:00:05;11.30;99.90
57576;DHT22;43412;-33.800;150.804;2023-06-22T08:02:44;11.30;99.90
57576;DHT22;43412;-33.800;150.804;2023-06-22T08:05:13;11.30;99.90
57576;DHT22;43412;-33.800;150.804;2023-06-22T08:07:41;11.30;99.90
57576;DHT22;43412;-33.800;150.804;2023-06-22T08:10:13;11.30;99.90
57576;DHT22;43412;-33.800;150.804;2023-06-22T08:12:41;11.30;99.90
57576;DHT22;43412;-33.800;150.804;2023-06-22T08:15:08;11.30;99.90
57576;DHT22;43412;-33.800;150.804;2023-06-22T08:17:39;11.30;99.90
57576;DHT22;43412;-33.800;150.804;2023-06-22T08:20:07;11.30;99.90
57576;DHT22;43412;-33.800;150.804;2023-06-22T08:22:44;11.30;99.90
57576;DHT22;43412;-33.800;150.804;2023-06-22T08:25:11;11.30;99.90
57576;DHT22;43412;-33.800;150.804;2023-06-22T08:27:39;11.20;99.90
57576;DHT22;43412;-33.800;150.804;2023-06-22T08:30:08;11.20;99.90
57576;DHT22;43412;-33.800;150.804;2023-06-22T08:32:37;11.20;99.90
57576;DHT22;43412;-33.800;150.804;2023-06-22T08:35:05;11.20;99.90
57576;DHT22;43412;-33.800;150.804;2023-06-22T08:37:36;11.10;99.90
57576;DHT22;43412;-33.800;150.804;2023-06-22T08:40:07;11.10;99.90
57576;DHT22;43412;-33.800;150.804;2023-06-22T08:42:41;11.20;99.90
57576;DHT22;43412;-33.800;150.804;2023-06-22T08:45:09;11.30;99.90
57576;DHT22;43412;-33.800;150.804;2023-06-22T08:47:37;11.30;99.90
57576;DHT22;43412;-33.800;150.804;2023-06-22T08:50:05;11.30;99.90
57576;DHT22;43412;-33.800;150.804;2023-06-22T08:52:34;11.30;99.90
57576;DHT22;43412;-33.800;150.804;2023-06-22T08:55:02;11.20;99.90
57576;DHT22;43412;-33.800;150.804;2023-06-22T08:57:29;11.20;99.90
57576;DHT22;43412;-33.800;150.804;2023-06-22T08:59:57;11.20;99.90
57576;DHT22;43412;-33.800;150.804;2023-06-22T09:02:26;11.20;99.90
57576;DHT22;43412;-33.800;150.804;2023-06-22T09:04:59;11.20;99.90
57576;DHT22;43412;-33.800;150.804;2023-06-22T09:07:27;11.20;99.90
57576;DHT22;43412;-33.800;150.804;2023-06-22T09:09:56;11.20;99.90
57576;DHT22;43412;-33.800;150.804;2023-06-22T09:12:23;11.10;99.90
57576;DHT22;43412;-33.800;150.804;2023-06-22T09:14:53;11.10;99.90
57576;DHT22;43412;-33.800;150.804;2023-06-22T09:17:21;11.10;99.90
57576;DHT22;43412;-33.800;150.804;2023-06-22T09:19:48;11.10;99.90
57576;DHT22;43412;-33.800;150.804;2023-06-22T09:22:16;11.10;99.90
57576;DHT22;43412;-33.800;150.804;2023-06-22T09:24:43;11.00;99.90
57576;DHT22;43412;-33.800;150.804;2023-06-22T09:27:11;11.00;99.90
57576;DHT22;43412;-33.800;150.804;2023-06-22T09:29:38;10.90;99.90
57576;DHT22;43412;-33.800;150.804;2023-06-22T09:32:06;10.90;99.90
57576;DHT22;43412;-33.800;150.804;2023-06-22T09:34:33;10.80;99.90
57576;DHT22;43412;-33.800;150.804;2023-06-22T09:37:01;10.80;99.90
57576;DHT22;43412;-33.800;150.804;2023-06-22T09:39:28;10.80;99.90
57576;DHT22;43412;-33.800;150.804;2023-06-22T09:41:57;10.80;99.90
57576;DHT22;43412;-33.800;150.804;2023-06-22T09:44:25;10.80;99.90
57576;DHT22;43412;-33.800;150.804;2023-06-22T09:46:53;10.80;99.90
57576;DHT22;43412;-33.800;150.804;2023-06-22T09:49:20;10.80;99.90
57576;DHT22;43412;-33.800;150.804;2023-06-22T09:51:47;10.80;99.90
57576;DHT22;43412;-33.800;150.804;2023-06-22T09:54:16;10.80;99.90
57576;DHT22;43412;-33.800;150.804;2023-06-22T09:56:43;10.80;99.90
57576;DHT22;43412;-33.800;150.804;2023-06-22T09:59:10;10.80;99.90
57576;DHT22;43412;-33.800;150.804;2023-06-22T10:01:38;10.70;99.90
57576;DHT22;43412;-33.800;150.804;2023-06-22T10:04:05;10.70;99.90
57576;DHT22;43412;-33.800;150.804;2023-06-22T10:06:32;10.70;99.90
57576;DHT22;43412;-33.800;150.804;2023-06-22T10:09:00;10.60;99.90
57576;DHT22;43412;-33.800;150.804;2023-06-22T10:11:27;10.60;99.90
57576;DHT22;43412;-33.800;150.804;2023-06-22T10:13:57;10.60;99.90
57576;DHT22;43412;-33.800;150.804;2023-06-22T10:16:31;10.60;99.90
57576;DHT22;43412;-33.800;150.804;2023-06-22T10:18:58;10.70;99.90
57576;DHT22;43412;-33.800;150.804;2023-06-22T10:21:26;10.70;99.90
57576;DHT22;43412;-33.800;150.804;2023-06-22T10:23:56;10.70;99.90
57576;DHT22;43412;-33.800;150.804;2023-06-22T10:26:25;10.70;99.90
57576;DHT22;43412;-33.800;150.804;2023-06-22T10:28:55;10.70;99.90
57576;DHT22;43412;-33.800;150.804;2023-06-22T10:31:22;10.70;99.90
57576;DHT22;43412;-33.800;150.804;2023-06-22T10:33:50;10.70;99.90
57576;DHT22;43412;-33.800;150.804;2023-06-22T10:36:17;10.70;99.90
57576;DHT22;43412;-33.800;150.804;2023-06-22T10:38:44;10.70;99.90
57576;DHT22;43412;-33.800;150.804;2023-06-22T10:41:13;10.70;99.90
57576;DHT22;43412;-33.800;150.804;2023-06-22T10:43:41;10.70;99.90
57576;DHT22;43412;-33.800;150.804;2023-06-22T10:46:09;10.70;99.90
57576;DHT22;43412;-33.800;150.804;2023-06-22T10:48:36;10.70;99.90
57576;DHT22;43412;-33.800;150.804;2023-06-22T10:51:04;10.70;99.90
57576;DHT22;43412;-33.800;150.804;2023-06-22T10:53:32;10.70;99.90
57576;DHT22;43412;-33.800;150.804;2023-06-22T10:56:02;10.70;99.90
57576;DHT22;43412;-33.800;150.804;2023-06-22T10:58:30;10.70;99.90
57576;DHT22;43412;-33.800;150.804;2023-06-22T11:00:57;10.70;99.90
57576;DHT22;43412;-33.800;150.804;2023-06-22T11:03:25;10.70;99.90
57576;DHT22;43412;-33.800;150.804;2023-06-22T11:05:52;10.70;99.90
57576;DHT22;43412;-33.800;150.804;2023-06-22T11:08:23;10.70;99.90
57576;DHT22;43412;-33.800;150.804;2023-06-22T11:10:51;10.70;99.90
57576;DHT22;43412;-33.800;150.804;2023-06-22T11:13:19;10.60;99.90
57576;DHT22;43412;-33.800;150.804;2023-06-22T11:15:46;10.60;99.90
57576;DHT22;43412;-33.800;150.804;2023-06-22T11:18:14;10.60;99.90
57576;DHT22;43412;-33.800;150.804;2023-06-22T11:20:42;10.60;99.90
57576;DHT22;43412;-33.800;150.804;2023-06-22T11:23:10;10.60;99.90
57576;DHT22;43412;-33.800;150.804;2023-06-22T11:25:38;10.60;99.90
57576;DHT22;43412;-33.800;150.804;2023-06-22T11:28:08;10.60;99.90
57576;DHT22;43412;-33.800;150.804;2023-06-22T11:30:35;10.60;99.90
57576;DHT22;43412;-33.800;150.804;2023-06-22T11:33:02;10.60;99.90
57576;DHT22;43412;-33.800;150.804;2023-06-22T11:35:30;10.60;99.90
57576;DHT22;43412;-33.800;150.804;2023-06-22T11:37:57;10.60;99.90
57576;DHT22;43412;-33.800;150.804;2023-06-22T11:40:24;10.60;99.90
57576;DHT22;43412;-33.800;150.804;2023-06-22T11:42:52;10.60;99.90
57576;DHT22;43412;-33.800;150.804;2023-06-22T11:45:19;10.60;99.90
57576;DHT22;43412;-33.800;150.804;2023-06-22T11:47:47;10.60;99.90
57576;DHT22;43412;-33.800;150.804;2023-06-22T11:50:14;10.50;99.90
57576;DHT22;43412;-33.800;150.804;2023-06-22T11:52:42;10.50;99.90
57576;DHT22;43412;-33.800;150.804;2023-06-22T11:55:09;10.50;99.90
57576;DHT22;43412;-33.800;150.804;2023-06-22T11:57:38;10.40;99.90
57576;DHT22;43412;-33.800;150.804;2023-06-22T12:00:06;10.40;99.90
57576;DHT22;43412;-33.800;150.804;2023-06-22T12:02:42;10.30;99.90
57576;DHT22;43412;-33.800;150.804;2023-06-22T12:05:11;10.30;99.90
57576;DHT22;43412;-33.800;150.804;2023-06-22T12:07:39;10.30;99.90
57576;DHT22;43412;-33.800;150.804;2023-06-22T12:10:06;10.30;99.90
57576;DHT22;43412;-33.800;150.804;2023-06-22T12:12:34;10.30;99.90
57576;DHT22;43412;-33.800;150.804;2023-06-22T12:15:01;10.30;99.90
57576;DHT22;43412;-33.800;150.804;2023-06-22T12:17:32;10.30;99.90
57576;DHT22;43412;-33.800;150.804;2023-06-22T12:19:59;10.30;99.90
57576;DHT22;43412;-33.800;150.804;2023-06-22T12:22:27;10.20;99.90
57576;DHT22;43412;-33.800;150.804;2023-06-22T12:24:54;10.30;99.90
57576;DHT22;43412;-33.800;150.804;2023-06-22T12:27:21;10.30;99.90
57576;DHT22;43412;-33.800;150.804;2023-06-22T12:29:49;10.30;99.90
57576;DHT22;43412;-33.800;150.804;2023-06-22T12:32:16;10.30;99.90
57576;DHT22;43412;-33.800;150.804;2023-06-22T12:34:44;10.30;99.90
57576;DHT22;43412;-33.800;150.804;2023-06-22T12:37:11;10.30;99.90
57576;DHT22;43412;-33.800;150.804;2023-06-22T12:39:41;10.30;99.90
57576;DHT22;43412;-33.800;150.804;2023-06-22T12:42:08;10.30;99.90
57576;DHT22;43412;-33.800;150.804;2023-06-22T12:44:37;10.30;99.90
57576;DHT22;43412;-33.800;150.804;2023-06-22T12:47:04;10.30;99.90
57576;DHT22;43412;-33.800;150.804;2023-06-22T12:49:32;10.30;99.90
57576;DHT22;43412;-33.800;150.804;2023-06-22T12:51:59;10.30;99.90
57576;DHT22;43412;-33.800;150.804;2023-06-22T12:54:27;10.40;99.90
57576;DHT22;43412;-33.800;150.804;2023-06-22T12:56:56;10.40;99.90
57576;DHT22;43412;-33.800;150.804;2023-06-22T12:59:23;10.40;99.90
57576;DHT22;43412;-33.800;150.804;2023-06-22T13:01:50;10.30;99.90
57576;DHT22;43412;-33.800;150.804;2023-06-22T13:04:18;10.30;99.90
57576;DHT22;43412;-33.800;150.804;2023-06-22T13:06:46;10.30;99.90
57576;DHT22;43412;-33.800;150.804;2023-06-22T13:09:18;10.30;99.90
57576;DHT22;43412;-33.800;150.804;2023-06-22T13:11:46;10.30;99.90
57576;DHT22;43412;-33.800;150.804;2023-06-22T13:14:13;10.30;99.90
57576;DHT22;43412;-33.800;150.804;2023-06-22T13:16:42;10.30;99.90
57576;DHT22;43412;-33.800;150.804;2023-06-22T13:19:10;10.30;99.90
57576;DHT22;43412;-33.800;150.804;2023-06-22T13:21:41;10.30;99.90
57576;DHT22;43412;-33.800;150.804;2023-06-22T13:24:08;10.30;99.90
57576;DHT22;43412;-33.800;150.804;2023-06-22T13:26:35;10.40;99.90
57576;DHT22;43412;-33.800;150.804;2023-06-22T13:29:03;10.40;99.90
57576;DHT22;43412;-33.800;150.804;2023-06-22T13:31:30;10.40;99.90
57576;DHT22;43412;-33.800;150.804;2023-06-22T13:33:57;10.40;99.90
57576;DHT22;43412;-33.800;150.804;2023-06-22T13:36:25;10.50;99.90
57576;DHT22;43412;-33.800;150.804;2023-06-22T13:38:52;10.50;99.90
57576;DHT22;43412;-33.800;150.804;2023-06-22T13:41:19;10.50;99.90
57576;DHT22;43412;-33.800;150.804;2023-06-22T13:43:47;10.50;99.90
57576;DHT22;43412;-33.800;150.804;2023-06-22T13:46:14;10.50;99.90
57576;DHT22;43412;-33.800;150.804;2023-06-22T13:48:41;10.60;99.90
57576;DHT22;43412;-33.800;150.804;2023-06-22T13:51:09;10.50;99.90
57576;DHT22;43412;-33.800;150.804;2023-06-22T13:53:36;10.50;99.90
57576;DHT22;43412;-33.800;150.804;2023-06-22T13:56:04;10.50;99.90
57576;DHT22;43412;-33.800;150.804;2023-06-22T13:58:31;10.60;99.90
57576;DHT22;43412;-33.800;150.804;2023-06-22T14:00:58;10.50;99.90
57576;DHT22;43412;-33.800;150.804;2023-06-22T14:03:26;10.50;99.90
57576;DHT22;43412;-33.800;150.804;2023-06-22T14:05:53;10.50;99.90
57576;DHT22;43412;-33.800;150.804;2023-06-22T14:08:22;10.40;99.90
57576;DHT22;43412;-33.800;150.804;2023-06-22T14:10:50;10.40;99.90
57576;DHT22;43412;-33.800;150.804;2023-06-22T14:13:20;10.30;99.90
57576;DHT22;43412;-33.800;150.804;2023-06-22T14:15:47;10.20;99.90
57576;DHT22;43412;-33.800;150.804;2023-06-22T14:18:15;10.20;99.90
57576;DHT22;43412;-33.800;150.804;2023-06-22T14:20:45;10.20;99.90
57576;DHT22;43412;-33.800;150.804;2023-06-22T14:23:14;10.20;99.90
57576;DHT22;43412;-33.800;150.804;2023-06-22T14:25:41;10.10;99.90
57576;DHT22;43412;-33.800;150.804;2023-06-22T14:28:08;10.10;99.90
57576;DHT22;43412;-33.800;150.804;2023-06-22T14:30:36;10.10;99.90
57576;DHT22;43412;-33.800;150.804;2023-06-22T14:33:03;10.10;99.90
57576;DHT22;43412;-33.800;150.804;2023-06-22T14:35:30;10.10;99.90
57576;DHT22;43412;-33.800;150.804;2023-06-22T14:37:58;10.10;99.90
57576;DHT22;43412;-33.800;150.804;2023-06-22T14:40:25;10.10;99.90
57576;DHT22;43412;-33.800;150.804;2023-06-22T14:42:52;10.20;99.90
57576;DHT22;43412;-33.800;150.804;2023-06-22T14:45:20;10.20;99.90
57576;DHT22;43412;-33.800;150.804;2023-06-22T14:47:49;10.20;99.90
57576;DHT22;43412;-33.800;150.804;2023-06-22T14:50:16;10.20;99.90
57576;DHT22;43412;-33.800;150.804;2023-06-22T14:52:44;10.20;99.90
57576;DHT22;43412;-33.800;150.804;2023-06-22T14:55:12;10.20;99.90
57576;DHT22;43412;-33.800;150.804;2023-06-22T14:57:39;10.30;99.90
57576;DHT22;43412;-33.800;150.804;2023-06-22T15:00:07;10.30;99.90
57576;DHT22;43412;-33.800;150.804;2023-06-22T15:02:34;10.30;99.90